createdAt,value
2023-05-19T00:00:31.927Z,19.62
2023-05-19T00:03:00.655Z,19.60
2023-05-19T00:05:30.696Z,19.56
2023-05-19T00:07:59.154Z,19.53
2023-05-19T00:10:31.643Z,19.54
2023-05-19T00:13:00.586Z,19.53
2023-05-19T00:15:28.352Z,19.57
2023-05-19T00:17:56.018Z,19.57
2023-05-19T00:20:23.625Z,19.56
2023-05-19T00:22:51.648Z,19.56
2023-05-19T00:25:19.509Z,19.56
2023-05-19T00:27:47.065Z,19.59
2023-05-19T00:30:14.901Z,19.62
2023-05-19T00:32:42.493Z,19.64
2023-05-19T00:35:10.157Z,19.65
2023-05-19T00:37:37.934Z,19.66
2023-05-19T00:40:06.709Z,19.70
2023-05-19T00:42:35.000Z,19.72
2023-05-19T00:45:02.617Z,19.70
2023-05-19T00:47:31.139Z,19.71
2023-05-19T00:49:59.136Z,19.74
2023-05-19T00:52:27.638Z,19.75
2023-05-19T00:54:55.447Z,19.76
2023-05-19T00:57:23.089Z,19.76
2023-05-19T00:59:50.643Z,19.78
2023-05-19T01:02:18.279Z,19.79
2023-05-19T01:04:45.846Z,19.78
2023-05-19T01:07:18.801Z,19.75
2023-05-19T01:09:46.467Z,19.74
2023-05-19T01:12:14.110Z,19.73
2023-05-19T01:14:42.427Z,19.74
2023-05-19T01:17:30.315Z,19.73
2023-05-19T01:20:06.910Z,19.71
2023-05-19T01:22:43.522Z,19.72
2023-05-19T01:25:33.893Z,19.68
2023-05-19T01:28:10.388Z,19.67
2023-05-19T01:30:41.631Z,19.64
2023-05-19T01:33:11.751Z,19.60
2023-05-19T01:35:40.142Z,19.58
2023-05-19T01:38:09.090Z,19.56
2023-05-19T01:40:37.910Z,19.52
2023-05-19T01:43:05.551Z,19.46
2023-05-19T01:45:33.637Z,19.42
2023-05-19T01:48:02.779Z,19.38
2023-05-19T01:50:30.924Z,19.32
2023-05-19T01:52:58.662Z,19.27
2023-05-19T01:55:26.090Z,19.23
2023-05-19T01:58:31.293Z,19.17
2023-05-19T02:01:31.184Z,19.11
2023-05-19T02:04:04.849Z,19.09
2023-05-19T02:06:50.459Z,19.03
2023-05-19T02:09:39.944Z,18.99
2023-05-19T02:12:10.399Z,18.95
2023-05-19T02:14:46.517Z,18.93
2023-05-19T02:17:15.937Z,18.89
2023-05-19T02:19:43.714Z,18.86
2023-05-19T02:22:11.285Z,18.86
2023-05-19T02:24:39.521Z,18.83
2023-05-19T02:27:07.126Z,18.81
2023-05-19T02:29:34.838Z,18.79
2023-05-19T02:32:02.600Z,18.76
2023-05-19T02:34:30.706Z,18.78
2023-05-19T02:36:58.252Z,18.78
2023-05-19T02:39:26.489Z,18.76
2023-05-19T02:41:54.171Z,18.73
2023-05-19T02:44:21.909Z,18.69
2023-05-19T02:46:49.790Z,18.63
2023-05-19T02:49:17.425Z,18.62
2023-05-19T02:51:45.340Z,18.56
2023-05-19T02:54:12.954Z,18.51
2023-05-19T02:56:40.593Z,18.50
2023-05-19T02:59:08.142Z,18.47
2023-05-19T03:01:37.822Z,18.45
2023-05-19T03:04:05.637Z,18.39
2023-05-19T03:06:33.344Z,18.35
2023-05-19T03:09:01.191Z,18.33
2023-05-19T03:11:30.994Z,18.30
2023-05-19T03:13:58.650Z,18.28
2023-05-19T03:16:28.157Z,18.31
2023-05-19T03:18:56.003Z,18.30
2023-05-19T03:21:23.549Z,18.31
2023-05-19T03:23:51.357Z,18.31
2023-05-19T03:26:20.150Z,18.32
2023-05-19T03:28:47.696Z,18.33
2023-05-19T03:31:16.454Z,18.31
2023-05-19T03:33:44.223Z,18.31
2023-05-19T03:36:12.781Z,18.31
2023-05-19T03:38:40.636Z,18.32
2023-05-19T03:41:08.356Z,18.34
2023-05-19T03:43:36.290Z,18.34
2023-05-19T03:46:06.110Z,18.38
2023-05-19T03:48:52.355Z,18.34
2023-05-19T03:51:30.149Z,18.36
2023-05-19T03:54:06.116Z,18.37
2023-05-19T03:56:33.623Z,18.42
2023-05-19T03:59:01.148Z,18.44
2023-05-19T04:01:28.965Z,18.45
2023-05-19T04:03:58.257Z,18.46
2023-05-19T04:06:25.906Z,18.48
2023-05-19T04:08:54.951Z,18.50
2023-05-19T04:11:22.488Z,18.49
2023-05-19T04:13:50.062Z,18.51
2023-05-19T04:16:17.773Z,18.51
2023-05-19T04:18:46.530Z,18.53
2023-05-19T04:21:14.426Z,18.56
2023-05-19T04:23:41.999Z,18.62
2023-05-19T04:26:09.604Z,18.67
2023-05-19T04:28:40.087Z,18.71
2023-05-19T04:31:11.255Z,18.78
2023-05-19T04:33:39.434Z,18.83
2023-05-19T04:36:10.531Z,18.89
2023-05-19T04:38:40.488Z,18.93
2023-05-19T04:41:10.692Z,18.97
2023-05-19T04:43:44.547Z,19.02
2023-05-19T04:46:14.153Z,19.08
2023-05-19T04:48:44.086Z,19.14
2023-05-19T04:51:14.435Z,19.20
2023-05-19T04:53:42.663Z,19.27
2023-05-19T04:56:15.375Z,19.33
2023-05-19T04:58:44.833Z,19.39
2023-05-19T05:01:13.980Z,19.43
2023-05-19T05:03:42.415Z,19.47
2023-05-19T05:06:11.809Z,19.49
2023-05-19T05:08:41.261Z,19.53
2023-05-19T05:11:09.625Z,19.59
2023-05-19T05:13:37.723Z,19.61
2023-05-19T05:16:06.586Z,19.68
2023-05-19T05:18:35.169Z,19.76
2023-05-19T05:21:06.147Z,19.78
2023-05-19T05:23:35.585Z,19.84
2023-05-19T05:26:07.828Z,19.93
2023-05-19T05:28:35.493Z,20.00
2023-05-19T05:31:03.300Z,20.08
2023-05-19T05:33:32.429Z,20.15
2023-05-19T05:36:00.065Z,20.22
2023-05-19T05:38:29.930Z,20.29
2023-05-19T05:40:57.735Z,20.36
2023-05-19T05:43:25.857Z,20.43
2023-05-19T05:45:58.692Z,20.49
2023-05-19T05:48:26.880Z,20.56
2023-05-19T05:50:54.763Z,20.64
2023-05-19T05:53:26.374Z,20.71
2023-05-19T05:55:55.686Z,20.78
2023-05-19T05:58:28.704Z,20.83
2023-05-19T06:00:57.799Z,20.90
2023-05-19T06:03:26.864Z,21.00
2023-05-19T06:05:56.389Z,21.07
2023-05-19T06:08:23.842Z,21.16
2023-05-19T06:10:51.401Z,21.25
2023-05-19T06:13:22.678Z,21.31
2023-05-19T06:15:51.063Z,21.40
2023-05-19T06:18:24.652Z,21.34
2023-05-19T06:20:53.414Z,21.49
2023-05-19T06:23:21.453Z,21.58
2023-05-19T06:25:49.173Z,21.64
2023-05-19T06:28:17.053Z,21.73
2023-05-19T06:30:45.345Z,21.80
2023-05-19T06:33:39.212Z,21.91
2023-05-19T06:36:08.522Z,21.99
2023-05-19T06:38:38.050Z,22.09
2023-05-19T06:41:05.780Z,22.18
2023-05-19T06:43:33.513Z,22.25
2023-05-19T06:46:03.975Z,22.35
2023-05-19T06:48:33.364Z,22.43
2023-05-19T06:51:00.997Z,22.48
2023-05-19T06:53:28.490Z,22.54
2023-05-19T06:55:59.976Z,22.59
2023-05-19T06:58:32.609Z,22.68
2023-05-19T07:01:02.562Z,22.78
2023-05-19T07:03:36.589Z,22.87
2023-05-19T07:06:05.640Z,22.95
2023-05-19T07:08:35.330Z,23.03
2023-05-19T07:11:04.141Z,23.12
2023-05-19T07:13:33.001Z,23.18
2023-05-19T07:16:00.626Z,23.30
2023-05-19T07:18:32.707Z,23.39
2023-05-19T07:21:00.224Z,23.47
2023-05-19T07:23:28.310Z,23.49
2023-05-19T07:25:56.736Z,23.57
2023-05-19T07:28:24.403Z,23.68
2023-05-19T07:30:52.063Z,23.74
2023-05-19T07:33:19.635Z,23.83
2023-05-19T07:35:47.673Z,23.93
2023-05-19T07:38:15.710Z,24.04
2023-05-19T07:40:43.146Z,24.15
2023-05-19T07:43:11.465Z,24.28
2023-05-19T07:45:39.015Z,24.35
2023-05-19T07:48:06.509Z,24.40
2023-05-19T07:50:34.289Z,24.47
2023-05-19T07:53:01.851Z,24.51
2023-05-19T07:55:29.386Z,24.58
2023-05-19T07:57:57.340Z,24.58
2023-05-19T08:00:25.422Z,24.69
2023-05-19T08:02:53.355Z,24.81
2023-05-19T08:05:20.919Z,24.95
2023-05-19T08:07:48.353Z,25.06
2023-05-19T08:10:16.427Z,25.08
2023-05-19T08:12:44.351Z,25.21
2023-05-19T08:15:11.864Z,25.39
2023-05-19T08:17:39.519Z,25.48
2023-05-19T08:20:09.011Z,25.61
2023-05-19T08:22:36.922Z,25.73
2023-05-19T08:25:07.715Z,25.79
2023-05-19T08:27:35.261Z,25.84
2023-05-19T08:30:02.681Z,25.93
2023-05-19T08:32:31.246Z,25.98
2023-05-19T08:34:58.719Z,26.09
2023-05-19T08:37:26.153Z,26.19
2023-05-19T08:39:53.556Z,26.26
2023-05-19T08:42:20.852Z,26.23
2023-05-19T08:44:48.251Z,26.20
2023-05-19T08:47:15.563Z,26.21
2023-05-19T08:49:47.067Z,26.16
2023-05-19T08:52:14.481Z,26.06
2023-05-19T08:54:45.937Z,26.07
2023-05-19T08:57:13.581Z,26.12
2023-05-19T08:59:41.561Z,26.24
2023-05-19T09:02:09.199Z,26.40
2023-05-19T09:04:37.127Z,26.58
2023-05-19T09:07:04.812Z,26.60
2023-05-19T09:09:33.116Z,26.59
2023-05-19T09:12:01.014Z,26.48
2023-05-19T09:14:29.366Z,26.41
2023-05-19T09:16:56.938Z,26.41
2023-05-19T09:19:24.490Z,26.43
2023-05-19T09:22:05.569Z,26.37
2023-05-19T09:24:34.203Z,26.35
2023-05-19T09:27:02.298Z,26.37
2023-05-19T09:29:29.916Z,26.32
2023-05-19T09:32:01.602Z,26.34
2023-05-19T09:34:29.492Z,26.42
2023-05-19T09:36:58.051Z,26.57
2023-05-19T09:39:25.980Z,26.59
2023-05-19T09:41:54.437Z,26.64
2023-05-19T09:44:29.805Z,26.66
2023-05-19T09:46:58.573Z,26.66
2023-05-19T09:49:29.733Z,26.66
2023-05-19T09:51:58.076Z,26.64
2023-05-19T09:54:27.553Z,26.62
2023-05-19T09:57:01.510Z,26.67
2023-05-19T09:59:32.308Z,26.74
2023-05-19T10:02:01.346Z,26.89
2023-05-19T10:04:29.802Z,27.05
2023-05-19T10:06:59.928Z,27.23
2023-05-19T10:09:29.077Z,27.44
2023-05-19T10:11:57.448Z,27.62
2023-05-19T10:14:26.014Z,27.74
2023-05-19T10:16:55.100Z,27.86
2023-05-19T10:19:27.671Z,28.02
2023-05-19T10:21:55.912Z,28.12
2023-05-19T10:24:23.370Z,28.23
2023-05-19T10:26:55.356Z,28.34
2023-05-19T10:29:28.288Z,28.41
2023-05-19T10:31:56.369Z,28.54
2023-05-19T10:34:50.396Z,28.65
2023-05-19T10:37:47.140Z,28.63
2023-05-19T10:40:33.960Z,28.55
2023-05-19T10:43:20.206Z,28.37
2023-05-19T10:45:54.526Z,28.13
2023-05-19T10:48:23.352Z,28.06
2023-05-19T10:50:55.122Z,27.92
2023-05-19T10:53:23.042Z,27.67
2023-05-19T10:55:56.183Z,27.61
2023-05-19T10:58:46.543Z,27.55
2023-05-19T11:01:14.614Z,27.47
2023-05-19T11:04:13.964Z,27.33
2023-05-19T11:06:41.920Z,27.24
2023-05-19T11:09:16.723Z,27.18
2023-05-19T11:11:48.156Z,27.08
2023-05-19T11:14:17.842Z,27.05
2023-05-19T11:16:49.200Z,26.99
2023-05-19T11:19:33.305Z,27.11
2023-05-19T11:22:11.430Z,27.28
2023-05-19T11:24:48.045Z,27.45
2023-05-19T11:27:25.635Z,27.58
2023-05-19T11:29:53.623Z,27.74
2023-05-19T11:32:22.401Z,27.84
2023-05-19T11:34:50.442Z,27.87
2023-05-19T11:37:18.010Z,27.88
2023-05-19T11:39:46.191Z,27.90
2023-05-19T11:42:13.887Z,27.89
2023-05-19T11:44:41.601Z,27.92
2023-05-19T11:47:09.306Z,27.86
2023-05-19T11:49:37.924Z,27.79
2023-05-19T11:52:05.912Z,27.71
2023-05-19T11:54:36.614Z,27.66
2023-05-19T11:57:04.391Z,27.58
2023-05-19T11:59:36.450Z,27.54
2023-05-19T12:02:15.285Z,27.59
2023-05-19T12:04:43.423Z,27.70
2023-05-19T12:07:12.404Z,27.79
2023-05-19T12:09:40.199Z,27.99
2023-05-19T12:12:08.071Z,28.19
2023-05-19T12:14:36.095Z,28.37
2023-05-19T12:17:13.827Z,28.53
2023-05-19T12:19:43.013Z,28.69
2023-05-19T12:22:10.615Z,28.81
2023-05-19T12:24:38.326Z,28.84
2023-05-19T12:27:10.045Z,28.81
2023-05-19T12:29:38.549Z,28.69
2023-05-19T12:32:09.495Z,28.62
2023-05-19T12:34:38.337Z,28.53
2023-05-19T12:37:06.073Z,28.42
2023-05-19T12:39:34.009Z,28.26
2023-05-19T12:42:03.354Z,28.23
2023-05-19T12:44:33.614Z,28.20
2023-05-19T12:47:01.945Z,28.13
2023-05-19T12:49:30.024Z,28.02
2023-05-19T12:51:59.547Z,28.02
2023-05-19T12:54:28.827Z,28.09
2023-05-19T12:56:57.802Z,28.13
2023-05-19T12:59:37.466Z,28.26
2023-05-19T13:02:06.718Z,28.41
2023-05-19T13:04:36.203Z,28.46
2023-05-19T13:07:04.758Z,28.45
2023-05-19T13:09:35.418Z,28.44
2023-05-19T13:12:04.853Z,28.32
2023-05-19T13:14:33.322Z,28.15
2023-05-19T13:17:02.163Z,28.07
2023-05-19T13:19:30.127Z,27.89
2023-05-19T13:21:58.806Z,27.74
2023-05-19T13:24:27.556Z,27.61
2023-05-19T13:26:56.004Z,27.58
2023-05-19T13:29:23.698Z,27.55
2023-05-19T13:31:51.605Z,27.44
2023-05-19T13:34:19.818Z,27.40
2023-05-19T13:36:48.977Z,27.32
2023-05-19T13:39:16.510Z,27.23
2023-05-19T13:41:44.056Z,27.15
2023-05-19T13:44:11.822Z,27.06
2023-05-19T13:46:45.187Z,27.03
2023-05-19T13:49:13.484Z,26.83
2023-05-19T13:51:42.904Z,26.70
2023-05-19T13:54:10.598Z,26.70
2023-05-19T13:56:38.177Z,26.71
2023-05-19T13:59:05.769Z,26.72
2023-05-19T14:01:33.460Z,26.65
2023-05-19T14:04:01.356Z,26.57
2023-05-19T14:06:29.277Z,26.47
2023-05-19T14:08:56.782Z,26.46
2023-05-19T14:11:24.676Z,26.49
2023-05-19T14:13:53.099Z,26.52
2023-05-19T14:16:22.223Z,26.52
2023-05-19T14:18:50.155Z,26.53
2023-05-19T14:21:17.982Z,26.54
2023-05-19T14:23:45.546Z,26.62
2023-05-19T14:26:13.413Z,26.72
2023-05-19T14:28:41.000Z,26.76
2023-05-19T14:31:15.008Z,26.84
2023-05-19T14:33:44.166Z,26.92
2023-05-19T14:36:11.674Z,26.97
2023-05-19T14:38:39.184Z,27.06
2023-05-19T14:41:07.158Z,27.18
2023-05-19T14:43:34.772Z,27.29
2023-05-19T14:46:04.542Z,27.30
2023-05-19T14:48:32.549Z,27.31
2023-05-19T14:51:00.205Z,27.36
2023-05-19T14:53:27.877Z,27.38
2023-05-19T14:55:55.457Z,27.37
2023-05-19T14:58:29.030Z,27.38
2023-05-19T15:01:00.154Z,27.42
2023-05-19T15:03:27.918Z,27.45
2023-05-19T15:05:55.675Z,27.47
2023-05-19T15:08:23.599Z,27.48
2023-05-19T15:10:51.808Z,27.49
2023-05-19T15:13:19.483Z,27.47
2023-05-19T15:15:47.259Z,27.46
2023-05-19T15:18:18.767Z,27.47
2023-05-19T15:20:46.642Z,27.45
2023-05-19T15:23:14.183Z,27.46
2023-05-19T15:25:41.669Z,27.43
2023-05-19T15:28:10.044Z,27.36
2023-05-19T15:30:38.196Z,27.39
2023-05-19T15:33:06.013Z,27.39
2023-05-19T15:35:33.794Z,27.31
2023-05-19T15:38:06.117Z,27.25
2023-05-19T15:40:34.112Z,27.20
2023-05-19T15:43:02.244Z,27.19
2023-05-19T15:45:30.040Z,27.20
2023-05-19T15:47:57.599Z,27.20
2023-05-19T15:50:26.494Z,27.13
2023-05-19T15:52:54.226Z,27.10
2023-05-19T15:55:21.756Z,27.05
2023-05-19T15:57:49.464Z,27.04
2023-05-19T16:00:17.054Z,27.04
2023-05-19T16:02:45.583Z,27.00
2023-05-19T16:05:13.584Z,26.96
2023-05-19T16:07:42.300Z,26.91
2023-05-19T16:10:10.031Z,26.89
2023-05-19T16:12:37.881Z,26.86
2023-05-19T16:15:05.908Z,26.81
2023-05-19T16:17:34.776Z,26.75
2023-05-19T16:20:02.399Z,26.68
2023-05-19T16:22:30.654Z,26.60
2023-05-19T16:24:58.158Z,26.49
2023-05-19T16:27:25.931Z,26.42
2023-05-19T16:29:53.478Z,26.34
2023-05-19T16:32:21.109Z,26.27
2023-05-19T16:34:48.974Z,26.22
2023-05-19T16:37:16.516Z,26.16
2023-05-19T16:39:44.210Z,26.09
2023-05-19T16:42:11.936Z,26.03
2023-05-19T16:44:39.442Z,25.98
2023-05-19T16:47:06.964Z,25.93
2023-05-19T16:49:34.918Z,25.86
2023-05-19T16:52:02.564Z,25.82
2023-05-19T16:54:30.212Z,25.78
2023-05-19T16:56:57.911Z,25.71
2023-05-19T16:59:25.613Z,25.65
2023-05-19T17:01:53.663Z,25.56
2023-05-19T17:04:21.277Z,25.50
2023-05-19T17:06:48.827Z,25.44
2023-05-19T17:09:16.301Z,25.37
2023-05-19T17:11:44.322Z,25.32
2023-05-19T17:14:11.858Z,25.28
2023-05-19T17:16:39.526Z,25.21
2023-05-19T17:19:07.137Z,25.14
2023-05-19T17:21:34.878Z,25.06
2023-05-19T17:24:02.611Z,24.98
2023-05-19T17:26:31.038Z,24.92
2023-05-19T17:29:00.169Z,24.86
2023-05-19T17:31:27.763Z,24.79
2023-05-19T17:33:55.604Z,24.72
2023-05-19T17:36:23.176Z,24.63
2023-05-19T17:38:50.911Z,24.54
2023-05-19T17:41:18.577Z,24.49
2023-05-19T17:43:46.071Z,24.43
2023-05-19T17:46:13.620Z,24.36
2023-05-19T17:48:41.384Z,24.30
2023-05-19T17:51:09.107Z,24.26
2023-05-19T17:53:37.468Z,24.18
2023-05-19T17:56:07.398Z,24.12
2023-05-19T17:58:36.188Z,24.06
2023-05-19T18:01:04.061Z,23.98
2023-05-19T18:03:32.173Z,23.94
2023-05-19T18:05:59.906Z,23.87
2023-05-19T18:08:27.549Z,23.83
2023-05-19T18:10:55.149Z,23.78
2023-05-19T18:13:23.730Z,23.71
2023-05-19T18:15:52.803Z,23.65
2023-05-19T18:18:20.846Z,23.61
2023-05-19T18:20:48.419Z,23.56
2023-05-19T18:23:16.301Z,23.51
2023-05-19T18:25:50.155Z,23.46
2023-05-19T18:28:17.680Z,23.39
2023-05-19T18:30:45.597Z,23.36
2023-05-19T18:33:13.556Z,23.29
2023-05-19T18:35:41.145Z,23.25
2023-05-19T18:38:08.697Z,23.19
2023-05-19T18:40:36.375Z,23.13
2023-05-19T18:43:04.080Z,23.06
2023-05-19T18:45:31.690Z,23.00
2023-05-19T18:47:59.485Z,22.94
2023-05-19T18:50:27.018Z,22.90
2023-05-19T18:52:54.889Z,22.85
2023-05-19T18:55:22.909Z,22.80
2023-05-19T18:57:51.465Z,22.74
2023-05-19T19:00:19.300Z,22.65
2023-05-19T19:02:47.180Z,22.60
2023-05-19T19:05:14.814Z,22.55
2023-05-19T19:07:44.820Z,22.50
2023-05-19T19:10:12.470Z,22.44
2023-05-19T19:12:40.373Z,22.39
2023-05-19T19:15:08.459Z,22.35
2023-05-19T19:17:36.551Z,22.30
2023-05-19T19:20:04.343Z,22.24
2023-05-19T19:22:32.452Z,22.19
2023-05-19T19:25:00.037Z,22.14
2023-05-19T19:27:31.065Z,22.12
2023-05-19T19:29:58.883Z,22.08
2023-05-19T19:32:26.515Z,22.04
2023-05-19T19:34:54.309Z,21.99
2023-05-19T19:37:21.894Z,21.95
2023-05-19T19:39:49.611Z,21.91
2023-05-19T19:42:17.314Z,21.90
2023-05-19T19:44:44.997Z,21.89
2023-05-19T19:47:12.976Z,21.86
2023-05-19T19:49:40.722Z,21.83
2023-05-19T19:52:08.431Z,21.80
2023-05-19T19:54:36.761Z,21.79
2023-05-19T19:57:04.514Z,21.76
2023-05-19T19:59:32.598Z,21.76
2023-05-19T20:02:01.398Z,21.75
2023-05-19T20:04:29.636Z,21.71
2023-05-19T20:06:57.217Z,21.68
2023-05-19T20:09:24.889Z,21.66
2023-05-19T20:11:52.463Z,21.65
2023-05-19T20:14:20.176Z,21.62
2023-05-19T20:16:47.931Z,21.59
2023-05-19T20:19:15.819Z,21.57
2023-05-19T20:21:43.506Z,21.54
2023-05-19T20:24:11.480Z,21.52
2023-05-19T20:26:39.059Z,21.49
2023-05-19T20:29:06.798Z,21.46
2023-05-19T20:31:34.602Z,21.44
2023-05-19T20:34:02.407Z,21.42
2023-05-19T20:36:30.276Z,21.42
2023-05-19T20:38:58.470Z,21.38
2023-05-19T20:41:26.049Z,21.37
2023-05-19T20:43:55.091Z,21.35
2023-05-19T20:46:22.930Z,21.33
2023-05-19T20:48:50.544Z,21.31
2023-05-19T20:51:18.083Z,21.28
2023-05-19T20:53:45.942Z,21.25
2023-05-19T20:56:14.049Z,21.23
2023-05-19T20:58:41.754Z,21.19
2023-05-19T21:01:09.367Z,21.17
2023-05-19T21:03:37.059Z,21.14
2023-05-19T21:06:04.789Z,21.07
2023-05-19T21:08:33.369Z,20.95
2023-05-19T21:11:00.974Z,20.88
2023-05-19T21:13:29.206Z,20.85
2023-05-19T21:15:57.510Z,20.83
2023-05-19T21:18:25.644Z,20.83
2023-05-19T21:20:53.339Z,20.82
2023-05-19T21:23:20.896Z,20.80
2023-05-19T21:25:50.080Z,20.79
2023-05-19T21:28:18.042Z,20.74
2023-05-19T21:30:48.349Z,20.73
2023-05-19T21:33:16.126Z,20.70
2023-05-19T21:35:45.420Z,20.67
2023-05-19T21:38:23.513Z,20.65
2023-05-19T21:40:52.648Z,20.60
2023-05-19T21:43:20.285Z,20.57
2023-05-19T21:45:48.022Z,20.54
2023-05-19T21:48:15.660Z,20.52
2023-05-19T21:50:43.252Z,20.51
2023-05-19T21:53:10.694Z,20.48
2023-05-19T21:55:39.289Z,20.46
2023-05-19T21:58:07.213Z,20.42
2023-05-19T22:00:36.763Z,20.41
2023-05-19T22:03:04.930Z,20.39
2023-05-19T22:05:35.448Z,20.37
2023-05-19T22:08:03.701Z,20.33
2023-05-19T22:10:32.037Z,20.30
2023-05-19T22:13:00.062Z,20.27
2023-05-19T22:15:27.614Z,20.24
2023-05-19T22:17:55.156Z,20.21
2023-05-19T22:20:22.600Z,20.19
2023-05-19T22:22:50.160Z,20.15
2023-05-19T22:25:17.625Z,20.11
2023-05-19T22:27:45.287Z,20.08
2023-05-19T22:30:12.692Z,20.05
2023-05-19T22:32:40.137Z,20.03
2023-05-19T22:35:08.938Z,20.01
2023-05-19T22:37:36.577Z,19.98
2023-05-19T22:40:04.488Z,19.97
2023-05-19T22:42:32.259Z,19.96
2023-05-19T22:44:59.698Z,19.93
2023-05-19T22:47:27.238Z,19.91
2023-05-19T22:49:55.618Z,19.87
2023-05-19T22:52:24.537Z,19.85
2023-05-19T22:54:51.971Z,19.82
2023-05-19T22:57:19.518Z,19.81
2023-05-19T22:59:46.966Z,19.74
2023-05-19T23:02:14.348Z,19.73
2023-05-19T23:04:41.770Z,19.69
2023-05-19T23:07:09.155Z,19.65
2023-05-19T23:09:36.745Z,19.63
2023-05-19T23:12:04.420Z,19.60
2023-05-19T23:14:32.321Z,19.57
2023-05-19T23:16:59.778Z,19.53
2023-05-19T23:19:28.548Z,19.51
2023-05-19T23:21:56.080Z,19.44
2023-05-19T23:24:23.519Z,19.39
2023-05-19T23:26:51.137Z,19.35
2023-05-19T23:29:18.677Z,19.30
2023-05-19T23:31:46.719Z,19.28
2023-05-19T23:34:14.202Z,19.27
2023-05-19T23:36:41.810Z,19.25
2023-05-19T23:39:09.376Z,19.23
2023-05-19T23:41:37.780Z,19.18
2023-05-19T23:44:05.420Z,19.16
2023-05-19T23:46:33.433Z,19.15
2023-05-19T23:49:01.032Z,19.12
2023-05-19T23:51:28.421Z,19.10
2023-05-19T23:53:55.842Z,19.08
2023-05-19T23:56:23.232Z,19.07
2023-05-19T23:58:50.800Z,19.01
